Destinations Ålesund Airport

Ålesund Airport (ENAL / AES)

Flights to Ålesund Airport

Flight number From ETE Dispatch
SPY-3101 ENVA Trondheim Airport Værnes 01:00
SPY-3102 ENSG Sogndal Airport 00:45

Flights from Ålesund Airport

Flight number To ETE Dispatch
SPY-3101 ENSG Sogndal Airport 00:45
SPY-3102 ENVA Trondheim Airport Værnes 01:00
About

Ålesund Airport facts

Ålesund Airport is located in Alesund at an elevation of 21.0 meters or 69 feet.

Currently, Speedy Airlines serves 4 flights to and from Ålesund Airport.

Detailed airport info

Route map

Weather

Current weather

METAR

METAR

Metar data retrieved Sunday, 21 July 2024 at 20:25 UTC

ENAL 212020Z 27006KT 9999 -RA SCT006 BKN008 15/13 Q1007
Wind Temperature Low clouds warning
6 kt 15c Clouds lower than 1000ft and either broken, overcast or vertical visibility